sensor_id;sensor_type;location;lat;lon;timestamp;P1;durP1;ratioP1;P2;durP2;ratioP2
30543;SDS011;43388;46.308;4.600;2023-09-19T00:00:37;2.25;;;1.40;;
30543;SDS011;43388;46.308;4.600;2023-09-19T00:03:03;2.08;;;1.30;;
30543;SDS011;43388;46.308;4.600;2023-09-19T00:05:34;4.45;;;1.48;;
30543;SDS011;43388;46.308;4.600;2023-09-19T00:08:00;2.63;;;1.50;;
30543;SDS011;43388;46.308;4.600;2023-09-19T00:10:29;2.45;;;1.30;;
30543;SDS011;43388;46.308;4.600;2023-09-19T00:12:56;5.50;;;1.63;;
30543;SDS011;43388;46.308;4.600;2023-09-19T00:15:23;4.63;;;1.60;;
30543;SDS011;43388;46.308;4.600;2023-09-19T00:17:51;1.88;;;1.50;;
30543;SDS011;43388;46.308;4.600;2023-09-19T00:20:20;2.97;;;1.00;;
30543;SDS011;43388;46.308;4.600;2023-09-19T00:22:48;2.30;;;1.23;;
30543;SDS011;43388;46.308;4.600;2023-09-19T00:25:17;3.33;;;1.40;;
30543;SDS011;43388;46.308;4.600;2023-09-19T00:27:43;1.90;;;1.25;;
30543;SDS011;43388;46.308;4.600;2023-09-19T00:30:10;4.22;;;1.50;;
30543;SDS011;43388;46.308;4.600;2023-09-19T00:32:41;3.38;;;1.40;;
30543;SDS011;43388;46.308;4.600;2023-09-19T00:35:07;3.50;;;1.15;;
30543;SDS011;43388;46.308;4.600;2023-09-19T00:37:36;1.80;;;1.13;;
30543;SDS011;43388;46.308;4.600;2023-09-19T00:40:03;1.48;;;1.10;;
30543;SDS011;43388;46.308;4.600;2023-09-19T00:42:35;2.35;;;1.17;;
30543;SDS011;43388;46.308;4.600;2023-09-19T00:45:02;4.95;;;1.63;;
30543;SDS011;43388;46.308;4.600;2023-09-19T00:47:28;2.42;;;1.42;;
30543;SDS011;43388;46.308;4.600;2023-09-19T00:49:55;2.53;;;1.20;;
30543;SDS011;43388;46.308;4.600;2023-09-19T00:52:21;1.70;;;1.17;;
30543;SDS011;43388;46.308;4.600;2023-09-19T00:54:49;2.28;;;1.45;;
30543;SDS011;43388;46.308;4.600;2023-09-19T00:57:17;1.75;;;1.42;;
30543;SDS011;43388;46.308;4.600;2023-09-19T00:59:44;3.90;;;1.25;;
30543;SDS011;43388;46.308;4.600;2023-09-19T01:02:10;4.65;;;1.52;;
30543;SDS011;43388;46.308;4.600;2023-09-19T01:04:39;4.57;;;1.45;;
30543;SDS011;43388;46.308;4.600;2023-09-19T01:07:05;2.95;;;1.42;;
30543;SDS011;43388;46.308;4.600;2023-09-19T01:09:33;4.13;;;1.95;;
30543;SDS011;43388;46.308;4.600;2023-09-19T01:12:01;4.82;;;1.55;;
30543;SDS011;43388;46.308;4.600;2023-09-19T01:17:00;3.00;;;1.60;;
30543;SDS011;43388;46.308;4.600;2023-09-19T01:19:48;7.32;;;1.65;;
30543;SDS011;43388;46.308;4.600;2023-09-19T01:22:25;5.18;;;1.85;;
30543;SDS011;43388;46.308;4.600;2023-09-19T01:32:21;2.92;;;1.67;;
30543;SDS011;43388;46.308;4.600;2023-09-19T01:37:14;3.70;;;1.88;;
30543;SDS011;43388;46.308;4.600;2023-09-19T01:39:44;1.98;;;1.50;;
30543;SDS011;43388;46.308;4.600;2023-09-19T01:42:35;3.53;;;1.60;;
30543;SDS011;43388;46.308;4.600;2023-09-19T01:45:07;7.15;;;2.47;;
30543;SDS011;43388;46.308;4.600;2023-09-19T01:47:41;2.25;;;1.88;;
30543;SDS011;43388;46.308;4.600;2023-09-19T01:52:36;3.22;;;1.70;;
30543;SDS011;43388;46.308;4.600;2023-09-19T01:55:06;2.97;;;1.50;;
30543;SDS011;43388;46.308;4.600;2023-09-19T01:57:40;3.40;;;1.88;;
30543;SDS011;43388;46.308;4.600;2023-09-19T02:00:09;3.77;;;1.73;;
30543;SDS011;43388;46.308;4.600;2023-09-19T02:02:40;5.10;;;1.95;;
30543;SDS011;43388;46.308;4.600;2023-09-19T02:05:08;3.63;;;2.28;;
30543;SDS011;43388;46.308;4.600;2023-09-19T02:07:34;3.63;;;1.95;;
30543;SDS011;43388;46.308;4.600;2023-09-19T02:10:02;5.82;;;2.35;;
30543;SDS011;43388;46.308;4.600;2023-09-19T02:12:30;5.28;;;1.90;;
30543;SDS011;43388;46.308;4.600;2023-09-19T02:14:57;5.13;;;2.10;;
30543;SDS011;43388;46.308;4.600;2023-09-19T02:17:24;3.78;;;2.13;;
30543;SDS011;43388;46.308;4.600;2023-09-19T02:19:53;4.70;;;2.20;;
30543;SDS011;43388;46.308;4.600;2023-09-19T02:22:20;3.67;;;2.28;;
30543;SDS011;43388;46.308;4.600;2023-09-19T02:24:47;3.38;;;2.30;;
30543;SDS011;43388;46.308;4.600;2023-09-19T02:27:13;5.22;;;2.22;;
30543;SDS011;43388;46.308;4.600;2023-09-19T02:29:41;4.25;;;2.40;;
30543;SDS011;43388;46.308;4.600;2023-09-19T02:32:07;4.28;;;2.10;;
30543;SDS011;43388;46.308;4.600;2023-09-19T02:34:34;6.60;;;2.30;;
30543;SDS011;43388;46.308;4.600;2023-09-19T02:37:07;6.95;;;2.38;;
30543;SDS011;43388;46.308;4.600;2023-09-19T02:39:38;6.70;;;2.58;;
30543;SDS011;43388;46.308;4.600;2023-09-19T02:42:04;3.75;;;2.50;;
30543;SDS011;43388;46.308;4.600;2023-09-19T02:44:30;5.40;;;2.20;;
30543;SDS011;43388;46.308;4.600;2023-09-19T02:46:57;7.13;;;2.28;;
30543;SDS011;43388;46.308;4.600;2023-09-19T02:49:23;8.23;;;2.85;;
30543;SDS011;43388;46.308;4.600;2023-09-19T02:51:50;4.60;;;2.17;;
30543;SDS011;43388;46.308;4.600;2023-09-19T02:54:16;5.20;;;2.63;;
30543;SDS011;43388;46.308;4.600;2023-09-19T02:56:43;6.93;;;2.35;;
30543;SDS011;43388;46.308;4.600;2023-09-19T02:59:09;7.03;;;2.50;;
30543;SDS011;43388;46.308;4.600;2023-09-19T03:01:35;7.78;;;2.30;;
30543;SDS011;43388;46.308;4.600;2023-09-19T03:04:03;4.30;;;2.28;;
30543;SDS011;43388;46.308;4.600;2023-09-19T03:06:31;6.72;;;2.97;;
30543;SDS011;43388;46.308;4.600;2023-09-19T03:08:57;4.32;;;2.20;;
30543;SDS011;43388;46.308;4.600;2023-09-19T03:11:25;6.53;;;2.85;;
30543;SDS011;43388;46.308;4.600;2023-09-19T03:13:51;3.95;;;2.03;;
30543;SDS011;43388;46.308;4.600;2023-09-19T03:16:18;6.85;;;2.53;;
30543;SDS011;43388;46.308;4.600;2023-09-19T03:18:46;4.63;;;2.25;;
30543;SDS011;43388;46.308;4.600;2023-09-19T03:21:14;4.18;;;2.03;;
30543;SDS011;43388;46.308;4.600;2023-09-19T03:23:40;5.80;;;2.47;;
30543;SDS011;43388;46.308;4.600;2023-09-19T03:26:06;6.35;;;2.35;;
30543;SDS011;43388;46.308;4.600;2023-09-19T03:28:33;4.05;;;2.10;;
30543;SDS011;43388;46.308;4.600;2023-09-19T03:31:04;4.38;;;1.92;;
30543;SDS011;43388;46.308;4.600;2023-09-19T03:33:30;5.10;;;2.25;;
30543;SDS011;43388;46.308;4.600;2023-09-19T03:35:59;5.13;;;2.13;;
30543;SDS011;43388;46.308;4.600;2023-09-19T03:38:26;4.88;;;2.35;;
30543;SDS011;43388;46.308;4.600;2023-09-19T03:40:55;4.78;;;2.33;;
30543;SDS011;43388;46.308;4.600;2023-09-19T03:43:21;7.05;;;2.30;;
30543;SDS011;43388;46.308;4.600;2023-09-19T03:45:47;5.68;;;2.15;;
30543;SDS011;43388;46.308;4.600;2023-09-19T03:48:14;7.45;;;2.40;;
30543;SDS011;43388;46.308;4.600;2023-09-19T03:50:40;9.23;;;2.38;;
30543;SDS011;43388;46.308;4.600;2023-09-19T03:53:06;4.53;;;1.92;;
30543;SDS011;43388;46.308;4.600;2023-09-19T03:55:32;7.85;;;2.38;;
30543;SDS011;43388;46.308;4.600;2023-09-19T03:58:03;4.15;;;2.40;;
30543;SDS011;43388;46.308;4.600;2023-09-19T04:00:29;3.50;;;2.03;;
30543;SDS011;43388;46.308;4.600;2023-09-19T04:02:55;5.32;;;2.70;;
30543;SDS011;43388;46.308;4.600;2023-09-19T04:05:22;4.68;;;2.30;;
30543;SDS011;43388;46.308;4.600;2023-09-19T04:07:48;4.80;;;2.08;;
30543;SDS011;43388;46.308;4.600;2023-09-19T04:10:15;5.68;;;1.95;;
30543;SDS011;43388;46.308;4.600;2023-09-19T04:12:49;3.45;;;2.13;;
30543;SDS011;43388;46.308;4.600;2023-09-19T04:17:42;4.28;;;2.25;;
30543;SDS011;43388;46.308;4.600;2023-09-19T04:20:08;3.45;;;2.13;;
30543;SDS011;43388;46.308;4.600;2023-09-19T04:22:37;4.53;;;2.47;;
30543;SDS011;43388;46.308;4.600;2023-09-19T04:25:04;2.60;;;1.75;;
30543;SDS011;43388;46.308;4.600;2023-09-19T04:27:32;4.88;;;2.13;;
30543;SDS011;43388;46.308;4.600;2023-09-19T04:29:58;5.43;;;2.13;;
30543;SDS011;43388;46.308;4.600;2023-09-19T04:32:28;3.15;;;1.95;;
30543;SDS011;43388;46.308;4.600;2023-09-19T04:34:54;6.28;;;2.58;;
30543;SDS011;43388;46.308;4.600;2023-09-19T04:37:25;3.45;;;2.20;;
30543;SDS011;43388;46.308;4.600;2023-09-19T04:39:51;5.80;;;2.72;;
30543;SDS011;43388;46.308;4.600;2023-09-19T04:42:17;10.45;;;2.50;;
30543;SDS011;43388;46.308;4.600;2023-09-19T04:44:44;5.95;;;2.45;;
30543;SDS011;43388;46.308;4.600;2023-09-19T04:47:10;3.60;;;2.20;;
30543;SDS011;43388;46.308;4.600;2023-09-19T04:49:37;2.95;;;1.88;;
30543;SDS011;43388;46.308;4.600;2023-09-19T04:52:05;2.95;;;2.05;;
30543;SDS011;43388;46.308;4.600;2023-09-19T04:54:31;6.18;;;2.00;;
30543;SDS011;43388;46.308;4.600;2023-09-19T04:56:59;4.88;;;2.40;;
30543;SDS011;43388;46.308;4.600;2023-09-19T04:59:25;5.88;;;2.40;;
30543;SDS011;43388;46.308;4.600;2023-09-19T05:01:53;5.15;;;2.17;;
30543;SDS011;43388;46.308;4.600;2023-09-19T05:04:19;8.38;;;2.40;;
30543;SDS011;43388;46.308;4.600;2023-09-19T05:06:45;6.30;;;2.33;;
30543;SDS011;43388;46.308;4.600;2023-09-19T05:09:11;5.90;;;2.30;;
30543;SDS011;43388;46.308;4.600;2023-09-19T05:11:37;6.22;;;2.65;;
30543;SDS011;43388;46.308;4.600;2023-09-19T05:14:03;7.53;;;2.40;;
30543;SDS011;43388;46.308;4.600;2023-09-19T05:16:30;3.38;;;2.33;;
30543;SDS011;43388;46.308;4.600;2023-09-19T05:18:59;6.45;;;3.00;;
30543;SDS011;43388;46.308;4.600;2023-09-19T05:21:26;4.20;;;2.33;;
30543;SDS011;43388;46.308;4.600;2023-09-19T05:23:56;6.80;;;2.88;;
30543;SDS011;43388;46.308;4.600;2023-09-19T05:26:22;4.95;;;2.85;;
30543;SDS011;43388;46.308;4.600;2023-09-19T05:28:48;5.38;;;2.72;;
30543;SDS011;43388;46.308;4.600;2023-09-19T05:31:14;5.25;;;2.53;;
30543;SDS011;43388;46.308;4.600;2023-09-19T05:33:41;6.07;;;2.38;;
30543;SDS011;43388;46.308;4.600;2023-09-19T05:36:07;5.00;;;2.60;;
30543;SDS011;43388;46.308;4.600;2023-09-19T05:38:35;7.07;;;2.63;;
30543;SDS011;43388;46.308;4.600;2023-09-19T05:41:02;4.78;;;2.45;;
30543;SDS011;43388;46.308;4.600;2023-09-19T05:43:28;3.38;;;2.20;;
30543;SDS011;43388;46.308;4.600;2023-09-19T05:45:54;5.95;;;2.65;;
30543;SDS011;43388;46.308;4.600;2023-09-19T05:48:21;3.83;;;2.15;;
30543;SDS011;43388;46.308;4.600;2023-09-19T05:50:47;7.13;;;2.65;;
30543;SDS011;43388;46.308;4.600;2023-09-19T05:53:14;3.20;;;2.58;;
30543;SDS011;43388;46.308;4.600;2023-09-19T05:55:41;3.70;;;2.20;;
30543;SDS011;43388;46.308;4.600;2023-09-19T05:58:07;4.43;;;2.42;;
30543;SDS011;43388;46.308;4.600;2023-09-19T06:00:35;7.57;;;2.60;;
30543;SDS011;43388;46.308;4.600;2023-09-19T06:03:01;8.20;;;2.40;;
30543;SDS011;43388;46.308;4.600;2023-09-19T06:05:27;5.10;;;2.15;;
30543;SDS011;43388;46.308;4.600;2023-09-19T06:07:55;4.10;;;2.13;;
30543;SDS011;43388;46.308;4.600;2023-09-19T06:10:24;4.40;;;2.28;;
30543;SDS011;43388;46.308;4.600;2023-09-19T06:12:50;2.80;;;2.15;;
30543;SDS011;43388;46.308;4.600;2023-09-19T06:15:18;6.90;;;2.58;;
30543;SDS011;43388;46.308;4.600;2023-09-19T06:17:51;4.57;;;1.77;;
30543;SDS011;43388;46.308;4.600;2023-09-19T06:20:20;6.97;;;2.20;;
30543;SDS011;43388;46.308;4.600;2023-09-19T06:22:47;4.07;;;3.30;;
30543;SDS011;43388;46.308;4.600;2023-09-19T06:25:14;4.07;;;2.20;;
30543;SDS011;43388;46.308;4.600;2023-09-19T06:27:47;3.88;;;2.22;;
30543;SDS011;43388;46.308;4.600;2023-09-19T06:30:14;6.25;;;2.47;;
30543;SDS011;43388;46.308;4.600;2023-09-19T06:32:40;4.22;;;2.42;;
30543;SDS011;43388;46.308;4.600;2023-09-19T06:35:09;4.60;;;2.28;;
30543;SDS011;43388;46.308;4.600;2023-09-19T06:37:36;3.95;;;2.50;;
30543;SDS011;43388;46.308;4.600;2023-09-19T06:40:12;5.32;;;2.30;;
30543;SDS011;43388;46.308;4.600;2023-09-19T06:42:40;3.67;;;2.40;;
30543;SDS011;43388;46.308;4.600;2023-09-19T06:45:06;3.78;;;1.92;;
30543;SDS011;43388;46.308;4.600;2023-09-19T06:47:33;2.90;;;1.90;;
30543;SDS011;43388;46.308;4.600;2023-09-19T06:49:59;5.53;;;2.53;;
30543;SDS011;43388;46.308;4.600;2023-09-19T06:52:27;6.32;;;2.60;;
30543;SDS011;43388;46.308;4.600;2023-09-19T06:54:53;5.45;;;2.30;;
30543;SDS011;43388;46.308;4.600;2023-09-19T06:57:19;4.50;;;2.10;;
30543;SDS011;43388;46.308;4.600;2023-09-19T06:59:45;4.47;;;1.95;;
30543;SDS011;43388;46.308;4.600;2023-09-19T07:02:11;5.30;;;3.00;;
30543;SDS011;43388;46.308;4.600;2023-09-19T07:04:38;6.63;;;2.30;;
30543;SDS011;43388;46.308;4.600;2023-09-19T07:07:05;5.50;;;2.58;;
30543;SDS011;43388;46.308;4.600;2023-09-19T07:09:34;2.58;;;1.77;;
30543;SDS011;43388;46.308;4.600;2023-09-19T07:12:00;4.97;;;2.22;;
30543;SDS011;43388;46.308;4.600;2023-09-19T07:14:26;4.63;;;2.47;;
30543;SDS011;43388;46.308;4.600;2023-09-19T07:16:53;4.95;;;2.45;;
30543;SDS011;43388;46.308;4.600;2023-09-19T07:19:20;4.95;;;2.05;;
30543;SDS011;43388;46.308;4.600;2023-09-19T07:21:46;3.97;;;2.47;;
30543;SDS011;43388;46.308;4.600;2023-09-19T07:24:12;3.63;;;2.15;;
30543;SDS011;43388;46.308;4.600;2023-09-19T07:26:38;5.40;;;2.20;;
30543;SDS011;43388;46.308;4.600;2023-09-19T07:29:05;7.53;;;2.75;;
30543;SDS011;43388;46.308;4.600;2023-09-19T07:31:32;7.68;;;2.30;;
30543;SDS011;43388;46.308;4.600;2023-09-19T07:33:58;4.43;;;2.00;;
30543;SDS011;43388;46.308;4.600;2023-09-19T07:36:24;3.63;;;2.13;;
30543;SDS011;43388;46.308;4.600;2023-09-19T07:38:50;9.27;;;2.42;;
30543;SDS011;43388;46.308;4.600;2023-09-19T07:41:16;6.60;;;2.20;;
30543;SDS011;43388;46.308;4.600;2023-09-19T07:43:42;5.68;;;2.22;;
30543;SDS011;43388;46.308;4.600;2023-09-19T07:46:09;5.95;;;2.28;;
30543;SDS011;43388;46.308;4.600;2023-09-19T07:48:36;3.95;;;2.20;;
30543;SDS011;43388;46.308;4.600;2023-09-19T07:51:06;3.92;;;1.88;;
30543;SDS011;43388;46.308;4.600;2023-09-19T07:53:33;3.75;;;1.83;;
30543;SDS011;43388;46.308;4.600;2023-09-19T07:56:06;4.03;;;1.90;;
30543;SDS011;43388;46.308;4.600;2023-09-19T07:58:33;3.70;;;2.17;;
30543;SDS011;43388;46.308;4.600;2023-09-19T08:01:09;8.80;;;2.38;;
30543;SDS011;43388;46.308;4.600;2023-09-19T08:03:35;2.80;;;1.83;;
30543;SDS011;43388;46.308;4.600;2023-09-19T08:06:05;5.22;;;2.03;;
30543;SDS011;43388;46.308;4.600;2023-09-19T08:08:32;4.93;;;2.25;;
30543;SDS011;43388;46.308;4.600;2023-09-19T08:11:02;3.60;;;1.80;;
30543;SDS011;43388;46.308;4.600;2023-09-19T08:13:29;7.50;;;2.10;;
30543;SDS011;43388;46.308;4.600;2023-09-19T08:15:56;6.32;;;2.20;;
30543;SDS011;43388;46.308;4.600;2023-09-19T08:18:22;2.92;;;2.08;;
30543;SDS011;43388;46.308;4.600;2023-09-19T08:20:51;3.92;;;2.00;;
30543;SDS011;43388;46.308;4.600;2023-09-19T08:23:17;4.28;;;2.05;;
30543;SDS011;43388;46.308;4.600;2023-09-19T08:25:45;4.28;;;2.30;;
30543;SDS011;43388;46.308;4.600;2023-09-19T08:28:11;2.30;;;1.90;;
30543;SDS011;43388;46.308;4.600;2023-09-19T08:30:39;4.18;;;2.08;;
30543;SDS011;43388;46.308;4.600;2023-09-19T08:33:06;11.00;;;2.55;;
30543;SDS011;43388;46.308;4.600;2023-09-19T08:35:32;5.97;;;2.10;;
30543;SDS011;43388;46.308;4.600;2023-09-19T08:38:00;5.18;;;2.38;;
30543;SDS011;43388;46.308;4.600;2023-09-19T08:40:29;5.13;;;2.13;;
30543;SDS011;43388;46.308;4.600;2023-09-19T08:42:58;6.30;;;2.00;;
30543;SDS011;43388;46.308;4.600;2023-09-19T08:45:24;4.60;;;2.30;;
30543;SDS011;43388;46.308;4.600;2023-09-19T08:50:24;6.95;;;2.80;;
30543;SDS011;43388;46.308;4.600;2023-09-19T08:52:52;4.82;;;2.05;;
30543;SDS011;43388;46.308;4.600;2023-09-19T08:55:23;3.75;;;1.90;;
30543;SDS011;43388;46.308;4.600;2023-09-19T08:57:52;4.05;;;1.92;;
30543;SDS011;43388;46.308;4.600;2023-09-19T09:00:24;3.28;;;2.15;;
30543;SDS011;43388;46.308;4.600;2023-09-19T09:02:52;4.72;;;2.15;;
30543;SDS011;43388;46.308;4.600;2023-09-19T09:05:19;6.47;;;2.20;;
30543;SDS011;43388;46.308;4.600;2023-09-19T09:07:48;4.72;;;1.90;;
30543;SDS011;43388;46.308;4.600;2023-09-19T09:10:17;5.70;;;2.10;;
30543;SDS011;43388;46.308;4.600;2023-09-19T09:12:43;4.15;;;2.00;;
30543;SDS011;43388;46.308;4.600;2023-09-19T09:15:09;5.32;;;2.00;;
30543;SDS011;43388;46.308;4.600;2023-09-19T09:17:37;3.25;;;1.88;;
30543;SDS011;43388;46.308;4.600;2023-09-19T09:20:03;4.78;;;2.20;;
30543;SDS011;43388;46.308;4.600;2023-09-19T09:22:35;2.47;;;1.85;;
30543;SDS011;43388;46.308;4.600;2023-09-19T09:25:05;4.50;;;1.90;;
30543;SDS011;43388;46.308;4.600;2023-09-19T09:27:31;7.45;;;2.25;;
30543;SDS011;43388;46.308;4.600;2023-09-19T09:29:59;3.38;;;1.70;;
30543;SDS011;43388;46.308;4.600;2023-09-19T09:32:26;4.25;;;1.60;;
30543;SDS011;43388;46.308;4.600;2023-09-19T09:34:54;3.28;;;1.80;;
30543;SDS011;43388;46.308;4.600;2023-09-19T09:37:21;3.92;;;2.30;;
30543;SDS011;43388;46.308;4.600;2023-09-19T09:39:53;3.75;;;2.25;;
30543;SDS011;43388;46.308;4.600;2023-09-19T09:42:31;2.85;;;1.67;;
30543;SDS011;43388;46.308;4.600;2023-09-19T09:47:42;3.95;;;1.77;;
30543;SDS011;43388;46.308;4.600;2023-09-19T09:50:32;3.97;;;1.98;;
30543;SDS011;43388;46.308;4.600;2023-09-19T09:53:21;3.50;;;1.77;;
30543;SDS011;43388;46.308;4.600;2023-09-19T09:55:56;3.58;;;1.95;;
30543;SDS011;43388;46.308;4.600;2023-09-19T09:58:23;4.45;;;2.08;;
30543;SDS011;43388;46.308;4.600;2023-09-19T10:00:54;4.10;;;2.10;;
30543;SDS011;43388;46.308;4.600;2023-09-19T10:03:33;3.63;;;1.80;;
30543;SDS011;43388;46.308;4.600;2023-09-19T10:06:05;2.35;;;1.65;;
30543;SDS011;43388;46.308;4.600;2023-09-19T10:08:57;5.22;;;2.17;;
30543;SDS011;43388;46.308;4.600;2023-09-19T10:11:46;4.25;;;1.90;;
30543;SDS011;43388;46.308;4.600;2023-09-19T10:14:22;8.77;;;2.35;;
30543;SDS011;43388;46.308;4.600;2023-09-19T10:16:50;5.05;;;2.65;;
30543;SDS011;43388;46.308;4.600;2023-09-19T10:19:29;2.03;;;1.50;;
30543;SDS011;43388;46.308;4.600;2023-09-19T10:21:58;2.63;;;1.77;;
30543;SDS011;43388;46.308;4.600;2023-09-19T10:24:25;2.92;;;1.80;;
30543;SDS011;43388;46.308;4.600;2023-09-19T10:26:52;2.42;;;1.70;;
30543;SDS011;43388;46.308;4.600;2023-09-19T10:29:19;2.17;;;1.67;;
30543;SDS011;43388;46.308;4.600;2023-09-19T10:31:47;4.15;;;1.80;;
30543;SDS011;43388;46.308;4.600;2023-09-19T10:34:17;2.80;;;2.10;;
30543;SDS011;43388;46.308;4.600;2023-09-19T10:36:44;2.28;;;1.73;;
30543;SDS011;43388;46.308;4.600;2023-09-19T10:39:11;4.05;;;1.88;;
30543;SDS011;43388;46.308;4.600;2023-09-19T10:41:38;3.80;;;1.83;;
30543;SDS011;43388;46.308;4.600;2023-09-19T10:44:05;4.50;;;2.15;;
30543;SDS011;43388;46.308;4.600;2023-09-19T10:46:32;8.07;;;2.03;;
30543;SDS011;43388;46.308;4.600;2023-09-19T10:48:59;2.83;;;1.63;;
30543;SDS011;43388;46.308;4.600;2023-09-19T10:51:25;5.40;;;2.53;;
30543;SDS011;43388;46.308;4.600;2023-09-19T10:53:57;3.17;;;1.80;;
30543;SDS011;43388;46.308;4.600;2023-09-19T10:56:32;2.63;;;2.03;;
30543;SDS011;43388;46.308;4.600;2023-09-19T10:59:08;5.57;;;2.03;;
30543;SDS011;43388;46.308;4.600;2023-09-19T11:09:48;3.67;;;2.10;;
30543;SDS011;43388;46.308;4.600;2023-09-19T11:15:06;4.95;;;2.08;;
30543;SDS011;43388;46.308;4.600;2023-09-19T11:17:39;3.78;;;1.60;;
30543;SDS011;43388;46.308;4.600;2023-09-19T11:30:45;4.38;;;1.88;;
30543;SDS011;43388;46.308;4.600;2023-09-19T11:39:09;3.05;;;1.42;;
30543;SDS011;43388;46.308;4.600;2023-09-19T11:41:57;3.20;;;1.67;;
30543;SDS011;43388;46.308;4.600;2023-09-19T11:46:54;4.35;;;2.30;;
30543;SDS011;43388;46.308;4.600;2023-09-19T11:49:31;3.58;;;1.70;;
30543;SDS011;43388;46.308;4.600;2023-09-19T11:52:01;2.55;;;1.30;;
30543;SDS011;43388;46.308;4.600;2023-09-19T11:54:30;5.22;;;1.73;;
30543;SDS011;43388;46.308;4.600;2023-09-19T11:56:57;2.88;;;1.20;;
30543;SDS011;43388;46.308;4.600;2023-09-19T11:59:24;1.58;;;1.48;;
30543;SDS011;43388;46.308;4.600;2023-09-19T12:01:54;2.45;;;1.48;;
30543;SDS011;43388;46.308;4.600;2023-09-19T12:07:07;2.60;;;1.58;;
30543;SDS011;43388;46.308;4.600;2023-09-19T12:09:41;2.88;;;1.63;;
30543;SDS011;43388;46.308;4.600;2023-09-19T12:12:19;2.05;;;1.30;;
30543;SDS011;43388;46.308;4.600;2023-09-19T12:14:49;1.52;;;1.25;;
30543;SDS011;43388;46.308;4.600;2023-09-19T12:17:18;2.30;;;1.38;;
30543;SDS011;43388;46.308;4.600;2023-09-19T12:19:55;1.98;;;1.50;;
30543;SDS011;43388;46.308;4.600;2023-09-19T12:22:22;1.87;;;1.40;;
30543;SDS011;43388;46.308;4.600;2023-09-19T12:24:48;2.67;;;1.60;;
30543;SDS011;43388;46.308;4.600;2023-09-19T12:27:15;1.60;;;1.20;;
30543;SDS011;43388;46.308;4.600;2023-09-19T12:29:48;2.97;;;1.40;;
30543;SDS011;43388;46.308;4.600;2023-09-19T12:32:14;3.03;;;1.38;;
30543;SDS011;43388;46.308;4.600;2023-09-19T12:34:52;2.22;;;1.42;;
30543;SDS011;43388;46.308;4.600;2023-09-19T12:37:19;2.58;;;1.40;;
30543;SDS011;43388;46.308;4.600;2023-09-19T12:39:46;1.55;;;1.40;;
30543;SDS011;43388;46.308;4.600;2023-09-19T12:42:25;2.60;;;1.48;;
30543;SDS011;43388;46.308;4.600;2023-09-19T12:44:57;1.77;;;1.15;;
30543;SDS011;43388;46.308;4.600;2023-09-19T12:47:26;1.83;;;1.38;;
30543;SDS011;43388;46.308;4.600;2023-09-19T12:50:06;1.50;;;1.20;;
30543;SDS011;43388;46.308;4.600;2023-09-19T12:52:36;1.48;;;1.13;;
30543;SDS011;43388;46.308;4.600;2023-09-19T12:55:02;1.60;;;1.13;;
30543;SDS011;43388;46.308;4.600;2023-09-19T12:57:30;2.60;;;1.30;;
30543;SDS011;43388;46.308;4.600;2023-09-19T13:00:00;2.55;;;1.52;;
30543;SDS011;43388;46.308;4.600;2023-09-19T13:02:26;3.10;;;1.58;;
30543;SDS011;43388;46.308;4.600;2023-09-19T13:04:53;1.92;;;1.33;;
30543;SDS011;43388;46.308;4.600;2023-09-19T13:10:10;1.77;;;1.10;;
30543;SDS011;43388;46.308;4.600;2023-09-19T13:12:40;2.47;;;1.27;;
30543;SDS011;43388;46.308;4.600;2023-09-19T13:15:11;2.67;;;1.40;;
30543;SDS011;43388;46.308;4.600;2023-09-19T13:17:48;3.85;;;1.50;;
30543;SDS011;43388;46.308;4.600;2023-09-19T13:20:21;2.58;;;1.20;;
30543;SDS011;43388;46.308;4.600;2023-09-19T13:22:52;4.20;;;1.42;;
30543;SDS011;43388;46.308;4.600;2023-09-19T13:25:19;1.85;;;1.20;;
30543;SDS011;43388;46.308;4.600;2023-09-19T13:27:46;3.05;;;1.20;;
30543;SDS011;43388;46.308;4.600;2023-09-19T13:30:17;1.65;;;1.30;;
30543;SDS011;43388;46.308;4.600;2023-09-19T13:32:43;1.20;;;1.00;;
30543;SDS011;43388;46.308;4.600;2023-09-19T13:35:11;3.85;;;1.30;;
30543;SDS011;43388;46.308;4.600;2023-09-19T13:37:38;1.58;;;1.13;;
30543;SDS011;43388;46.308;4.600;2023-09-19T13:40:11;2.13;;;1.40;;
30543;SDS011;43388;46.308;4.600;2023-09-19T13:42:37;1.55;;;1.40;;
30543;SDS011;43388;46.308;4.600;2023-09-19T13:45:03;2.47;;;1.20;;
30543;SDS011;43388;46.308;4.600;2023-09-19T13:47:33;1.38;;;1.23;;
30543;SDS011;43388;46.308;4.600;2023-09-19T13:50:01;2.53;;;1.40;;
30543;SDS011;43388;46.308;4.600;2023-09-19T13:52:29;2.33;;;1.52;;
30543;SDS011;43388;46.308;4.600;2023-09-19T13:54:56;1.77;;;1.30;;
30543;SDS011;43388;46.308;4.600;2023-09-19T13:57:22;1.33;;;1.10;;
30543;SDS011;43388;46.308;4.600;2023-09-19T13:59:48;1.73;;;1.20;;
30543;SDS011;43388;46.308;4.600;2023-09-19T14:02:14;3.08;;;0.93;;
30543;SDS011;43388;46.308;4.600;2023-09-19T14:04:43;1.25;;;0.70;;
30543;SDS011;43388;46.308;4.600;2023-09-19T14:07:09;1.52;;;0.93;;
30543;SDS011;43388;46.308;4.600;2023-09-19T14:09:36;0.93;;;0.80;;
30543;SDS011;43388;46.308;4.600;2023-09-19T14:12:02;1.63;;;1.20;;
30543;SDS011;43388;46.308;4.600;2023-09-19T14:14:28;1.42;;;0.95;;
30543;SDS011;43388;46.308;4.600;2023-09-19T14:16:54;1.17;;;0.88;;
30543;SDS011;43388;46.308;4.600;2023-09-19T14:19:21;1.35;;;0.90;;
30543;SDS011;43388;46.308;4.600;2023-09-19T14:21:47;4.72;;;1.05;;
30543;SDS011;43388;46.308;4.600;2023-09-19T14:24:17;1.60;;;0.90;;
30543;SDS011;43388;46.308;4.600;2023-09-19T14:26:44;2.20;;;0.90;;
30543;SDS011;43388;46.308;4.600;2023-09-19T14:29:10;3.03;;;0.77;;
30543;SDS011;43388;46.308;4.600;2023-09-19T14:31:39;1.67;;;1.40;;
30543;SDS011;43388;46.308;4.600;2023-09-19T14:34:06;1.50;;;1.23;;
30543;SDS011;43388;46.308;4.600;2023-09-19T14:36:32;2.65;;;0.90;;
30543;SDS011;43388;46.308;4.600;2023-09-19T14:38:58;5.75;;;1.55;;
30543;SDS011;43388;46.308;4.600;2023-09-19T14:41:25;2.30;;;1.10;;
30543;SDS011;43388;46.308;4.600;2023-09-19T14:43:51;9.63;;;1.05;;
30543;SDS011;43388;46.308;4.600;2023-09-19T14:46:17;4.82;;;1.02;;
30543;SDS011;43388;46.308;4.600;2023-09-19T14:48:44;6.13;;;0.90;;
30543;SDS011;43388;46.308;4.600;2023-09-19T14:51:13;1.02;;;0.80;;
30543;SDS011;43388;46.308;4.600;2023-09-19T14:53:39;4.05;;;0.93;;
30543;SDS011;43388;46.308;4.600;2023-09-19T14:56:09;13.35;;;2.80;;
30543;SDS011;43388;46.308;4.600;2023-09-19T14:58:36;6.10;;;1.83;;
30543;SDS011;43388;46.308;4.600;2023-09-19T15:01:10;9.20;;;1.00;;
30543;SDS011;43388;46.308;4.600;2023-09-19T15:03:36;2.75;;;1.10;;
30543;SDS011;43388;46.308;4.600;2023-09-19T15:06:04;9.65;;;1.25;;
30543;SDS011;43388;46.308;4.600;2023-09-19T15:08:34;1.52;;;0.88;;
30543;SDS011;43388;46.308;4.600;2023-09-19T15:11:00;3.05;;;0.88;;
30543;SDS011;43388;46.308;4.600;2023-09-19T15:13:32;1.02;;;0.60;;
30543;SDS011;43388;46.308;4.600;2023-09-19T15:16:02;3.97;;;0.90;;
30543;SDS011;43388;46.308;4.600;2023-09-19T15:18:28;2.33;;;1.30;;
30543;SDS011;43388;46.308;4.600;2023-09-19T15:20:55;1.80;;;0.93;;
30543;SDS011;43388;46.308;4.600;2023-09-19T15:23:21;6.80;;;1.30;;
30543;SDS011;43388;46.308;4.600;2023-09-19T15:25:48;3.63;;;1.00;;
30543;SDS011;43388;46.308;4.600;2023-09-19T15:28:14;4.32;;;1.00;;
30543;SDS011;43388;46.308;4.600;2023-09-19T15:30:40;3.58;;;1.50;;
30543;SDS011;43388;46.308;4.600;2023-09-19T15:33:06;1.33;;;0.80;;
30543;SDS011;43388;46.308;4.600;2023-09-19T15:35:32;2.90;;;1.13;;
30543;SDS011;43388;46.308;4.600;2023-09-19T15:37:58;1.63;;;0.90;;
30543;SDS011;43388;46.308;4.600;2023-09-19T15:40:25;1.75;;;0.93;;
30543;SDS011;43388;46.308;4.600;2023-09-19T15:42:52;1.73;;;0.90;;
30543;SDS011;43388;46.308;4.600;2023-09-19T15:45:18;1.98;;;1.20;;
30543;SDS011;43388;46.308;4.600;2023-09-19T15:47:44;3.53;;;0.90;;
30543;SDS011;43388;46.308;4.600;2023-09-19T15:50:10;1.23;;;1.20;;
30543;SDS011;43388;46.308;4.600;2023-09-19T15:52:40;3.65;;;1.25;;